Time;durP1;ratioP1;P1;durP2;ratioP2;P2;SDS_P1;SDS_P2;PMS_P1;PMS_P2;Temp;Humidity;BMP_temperature;BMP_pressure;BME280_temperature;BME280_humidity;BME280_pressure;Samples;Min_cycle;Max_cycle;Signal;HPM_P1;HPM_P2
2022/06/30 00:00:58;;;;;;;7.75;5.60;;;20.50;99.90;;;;;;5077010;28;20040;-86
2022/06/30 00:03:24;;;;;;;7.60;6.25;;;20.50;99.90;;;;;;5046450;28;20055;-87
2022/06/30 00:05:49;;;;;;;9.05;5.43;;;20.50;99.90;;;;;;5059567;28;20047;-86
2022/06/30 00:08:15;;;;;;;8.05;5.72;;;20.60;99.90;;;;;;5073071;28;20048;-86
2022/06/30 00:10:41;;;;;;;8.25;6.30;;;20.50;99.90;;;;;;5067613;28;20036;-87
2022/06/30 00:13:07;;;;;;;7.28;5.40;;;20.40;99.90;;;;;;5064115;28;20040;-87
2022/06/30 00:15:35;;;;;;;6.32;5.07;;;20.30;99.90;;;;;;5064390;28;20066;-87
2022/06/30 00:18:01;;;;;;;7.80;5.07;;;20.30;99.90;;;;;;5063227;28;20088;-87
2022/06/30 00:20:26;;;;;;;7.75;5.68;;;20.30;99.90;;;;;;5033899;28;20127;-88
2022/06/30 00:22:52;;;;;;;8.63;5.25;;;20.20;99.90;;;;;;5045996;28;20091;-87
2022/06/30 00:25:18;;;;;;;6.80;4.78;;;20.10;99.90;;;;;;5064012;28;20549;-87
2022/06/30 00:27:44;;;;;;;6.45;4.47;;;20.10;99.90;;;;;;5054693;28;20051;-87
2022/06/30 00:30:13;;;;;;;6.55;4.47;;;20.00;99.90;;;;;;5055702;28;20063;-87
2022/06/30 00:32:39;;;;;;;5.35;3.90;;;19.90;99.90;;;;;;5042116;28;20047;-87
2022/06/30 00:35:05;;;;;;;9.02;4.45;;;19.90;99.90;;;;;;5080406;28;20085;-87
2022/06/30 00:37:32;;;;;;;6.93;4.20;;;19.80;99.90;;;;;;5029938;28;20057;-87
2022/06/30 00:39:58;;;;;;;5.45;3.80;;;19.80;99.90;;;;;;5047695;28;20076;-87
2022/06/30 00:42:24;;;;;;;6.68;3.60;;;19.70;99.90;;;;;;5057379;28;20445;-87
2022/06/30 00:44:49;;;;;;;6.22;3.47;;;19.80;99.90;;;;;;5062164;28;20048;-86
2022/06/30 00:47:15;;;;;;;5.38;4.03;;;19.60;99.90;;;;;;5035419;28;20055;-86
2022/06/30 00:49:41;;;;;;;5.35;3.42;;;19.60;99.90;;;;;;5036450;28;20601;-86
2022/06/30 00:52:10;;;;;;;7.93;3.67;;;19.50;99.90;;;;;;5068677;28;20043;-86
2022/06/30 00:54:39;;;;;;;5.05;3.75;;;19.60;99.90;;;;;;5056504;28;20126;-86
2022/06/30 00:57:07;;;;;;;8.18;4.10;;;19.50;99.90;;;;;;5054680;28;20049;-86
2022/06/30 00:59:33;;;;;;;6.43;4.00;;;19.50;99.90;;;;;;5068651;28;20368;-86
2022/06/30 01:02:00;;;;;;;6.95;4.25;;;19.50;99.90;;;;;;5047841;28;20070;-86
2022/06/30 01:04:29;;;;;;;8.38;4.15;;;19.50;99.90;;;;;;5077014;28;20093;-86
2022/06/30 01:06:57;;;;;;;8.38;4.25;;;19.50;99.90;;;;;;5060915;28;20048;-85
2022/06/30 01:14:54;;;;;;;6.45;4.18;;;19.40;99.90;;;;;;5051832;28;20794;-86
2022/06/30 01:17:20;;;;;;;7.13;4.15;;;19.40;99.90;;;;;;5049511;28;20055;-87
2022/06/30 01:19:54;;;;;;;6.82;4.40;;;19.40;99.90;;;;;;5081464;28;20044;-86
2022/06/30 01:22:20;;;;;;;5.63;4.00;;;19.40;99.90;;;;;;5055987;28;20071;-87
2022/06/30 01:24:46;;;;;;;5.65;4.13;;;19.30;99.90;;;;;;5053223;28;20085;-86
2022/06/30 01:27:11;;;;;;;6.75;4.15;;;19.20;99.90;;;;;;5061592;28;20060;-87
2022/06/30 01:29:40;;;;;;;5.78;4.53;;;19.20;99.90;;;;;;5080179;28;20178;-86
2022/06/30 01:32:06;;;;;;;9.48;4.57;;;19.20;99.90;;;;;;5065062;28;20049;-86
2022/06/30 01:34:32;;;;;;;6.90;4.60;;;19.10;99.90;;;;;;5068332;28;20051;-86
2022/06/30 01:36:59;;;;;;;8.15;4.85;;;19.10;99.90;;;;;;5071916;28;20655;-86
2022/06/30 01:39:25;;;;;;;7.57;4.65;;;19.10;99.90;;;;;;5056879;28;20052;-86
2022/06/30 01:41:51;;;;;;;6.07;4.30;;;19.10;99.90;;;;;;5052616;28;20456;-87
2022/06/30 01:44:17;;;;;;;6.20;4.63;;;19.10;99.90;;;;;;5051025;28;20086;-86
2022/06/30 01:46:49;;;;;;;8.57;5.00;;;19.20;99.90;;;;;;5046860;28;20155;-86
2022/06/30 01:49:15;;;;;;;7.30;4.70;;;19.10;99.90;;;;;;5076916;28;20044;-86
2022/06/30 01:51:42;;;;;;;7.60;4.43;;;19.00;99.90;;;;;;5052218;28;20068;-86
2022/06/30 01:54:09;;;;;;;6.72;4.47;;;19.10;99.90;;;;;;5050401;28;20059;-86
2022/06/30 01:56:36;;;;;;;9.20;4.85;;;19.10;99.90;;;;;;5064319;28;20670;-87
2022/06/30 01:59:02;;;;;;;7.07;4.40;;;19.10;99.90;;;;;;5060496;28;20067;-85
2022/06/30 02:01:27;;;;;;;9.07;4.70;;;19.10;99.90;;;;;;5061889;28;20697;-86
2022/06/30 02:03:53;;;;;;;7.28;4.72;;;19.00;99.90;;;;;;5040137;28;20045;-86
2022/06/30 02:06:19;;;;;;;9.38;4.70;;;19.10;99.90;;;;;;5078012;28;20177;-86
2022/06/30 02:08:45;;;;;;;6.60;4.53;;;19.00;99.90;;;;;;5059690;28;20077;-86
2022/06/30 02:11:10;;;;;;;6.28;4.32;;;19.10;99.90;;;;;;5030992;28;20754;-87
2022/06/30 02:13:36;;;;;;;6.85;4.15;;;18.90;99.90;;;;;;5024044;28;20045;-86
2022/06/30 02:16:02;;;;;;;6.15;4.43;;;18.90;99.90;;;;;;5057726;28;20056;-85
2022/06/30 02:18:28;;;;;;;6.07;4.07;;;18.90;99.90;;;;;;5068805;28;20105;-86
2022/06/30 02:20:54;;;;;;;7.57;4.93;;;18.80;99.90;;;;;;5056602;28;20764;-86
2022/06/30 02:23:19;;;;;;;6.32;4.85;;;18.80;99.90;;;;;;5053882;28;20039;-85
2022/06/30 02:25:45;;;;;;;7.85;4.75;;;18.90;99.90;;;;;;5046445;28;20053;-86
2022/06/30 02:28:11;;;;;;;6.15;4.97;;;18.70;99.90;;;;;;5053779;28;20105;-87
2022/06/30 02:30:38;;;;;;;5.47;4.22;;;18.70;99.90;;;;;;5050675;28;20059;-86
2022/06/30 02:33:03;;;;;;;6.20;4.50;;;18.60;99.90;;;;;;5063689;28;20639;-86
2022/06/30 02:35:29;;;;;;;8.45;5.18;;;18.50;99.90;;;;;;5073535;28;20069;-86
2022/06/30 02:37:56;;;;;;;5.88;4.10;;;18.50;99.90;;;;;;5055541;28;20040;-87
2022/06/30 02:40:22;;;;;;;7.68;4.70;;;18.40;99.90;;;;;;5045285;28;20146;-85
2022/06/30 02:42:48;;;;;;;7.00;4.60;;;18.40;99.90;;;;;;5047550;28;20051;-85
2022/06/30 02:45:13;;;;;;;8.13;5.05;;;18.40;99.90;;;;;;5038783;28;20620;-86
2022/06/30 02:47:41;;;;;;;7.53;5.05;;;18.30;99.90;;;;;;5061545;28;20094;-86
2022/06/30 02:50:09;;;;;;;9.95;5.50;;;18.30;99.90;;;;;;5049972;28;20050;-86
2022/06/30 02:52:36;;;;;;;9.18;5.30;;;18.20;99.90;;;;;;5052817;28;20048;-86
2022/06/30 02:55:02;;;;;;;9.27;5.10;;;18.20;99.90;;;;;;5059105;28;20055;-86
2022/06/30 02:57:28;;;;;;;5.60;4.07;;;18.10;99.90;;;;;;5075156;28;20598;-85
2022/06/30 02:59:54;;;;;;;6.63;4.80;;;18.00;99.90;;;;;;5065455;28;20067;-85
2022/06/30 03:02:20;;;;;;;8.35;4.63;;;18.00;99.90;;;;;;5084017;28;20051;-85
2022/06/30 03:04:45;;;;;;;8.18;4.90;;;18.10;99.90;;;;;;5071620;28;20125;-85
2022/06/30 03:07:11;;;;;;;7.57;5.45;;;18.10;99.90;;;;;;5046289;28;20136;-85
2022/06/30 03:09:37;;;;;;;6.68;5.10;;;18.30;99.90;;;;;;5053618;28;20161;-85
2022/06/30 03:12:03;;;;;;;6.78;5.13;;;17.90;99.90;;;;;;5060308;28;20137;-86
2022/06/30 03:14:29;;;;;;;8.05;4.97;;;18.00;99.90;;;;;;5044782;28;20047;-86
2022/06/30 03:16:55;;;;;;;7.75;5.15;;;17.90;99.90;;;;;;5076814;28;20051;-85
2022/06/30 03:19:21;;;;;;;6.10;4.88;;;17.90;99.90;;;;;;5072994;28;20044;-86
2022/06/30 03:21:47;;;;;;;8.88;4.97;;;17.90;99.90;;;;;;5047036;28;20048;-85
2022/06/30 03:24:13;;;;;;;7.47;4.72;;;17.90;99.90;;;;;;5064062;28;20693;-85
2022/06/30 03:26:38;;;;;;;7.55;4.95;;;17.90;99.90;;;;;;5054140;28;20044;-85
2022/06/30 03:29:05;;;;;;;7.55;4.43;;;17.80;99.90;;;;;;5077857;28;20036;-85
2022/06/30 03:31:31;;;;;;;11.07;5.13;;;17.80;99.90;;;;;;5072581;28;20040;-86
2022/06/30 03:33:56;;;;;;;9.02;4.95;;;17.80;99.90;;;;;;5046602;28;20040;-86
2022/06/30 03:36:22;;;;;;;6.50;4.95;;;17.80;99.90;;;;;;5055124;28;20063;-86
2022/06/30 03:38:48;;;;;;;6.32;4.57;;;17.80;99.90;;;;;;5066938;28;20044;-85
2022/06/30 03:41:13;;;;;;;7.15;4.40;;;17.90;99.90;;;;;;5062743;28;20128;-86
2022/06/30 03:43:39;;;;;;;8.52;4.97;;;17.80;99.90;;;;;;5050503;28;20072;-86
2022/06/30 03:46:05;;;;;;;7.60;4.60;;;17.80;99.90;;;;;;5069989;28;20048;-86
2022/06/30 03:48:31;;;;;;;9.10;5.65;;;17.70;99.90;;;;;;5045554;28;20753;-84
2022/06/30 03:50:57;;;;;;;7.28;5.10;;;17.70;99.90;;;;;;5048006;28;20132;-85
2022/06/30 03:53:22;;;;;;;8.00;4.93;;;17.80;99.90;;;;;;5044919;28;20048;-85
2022/06/30 03:55:48;;;;;;;7.30;4.80;;;17.70;99.90;;;;;;5061573;28;20568;-85
2022/06/30 03:58:13;;;;;;;6.20;4.53;;;17.70;99.90;;;;;;5066430;28;20048;-85
2022/06/30 04:00:39;;;;;;;8.25;5.00;;;17.70;99.90;;;;;;5033423;28;20052;-85
2022/06/30 04:03:06;;;;;;;7.38;5.30;;;17.70;99.90;;;;;;5045291;28;20049;-85
2022/06/30 04:05:32;;;;;;;8.98;5.05;;;17.60;99.90;;;;;;5048663;28;20571;-86
2022/06/30 04:07:58;;;;;;;5.97;4.68;;;17.60;99.90;;;;;;5057433;28;20052;-85
2022/06/30 04:10:23;;;;;;;6.95;5.10;;;17.60;99.90;;;;;;5044244;28;20048;-85
2022/06/30 04:12:49;;;;;;;6.05;4.88;;;17.60;99.90;;;;;;5038370;28;20040;-85
2022/06/30 04:15:15;;;;;;;7.13;4.78;;;17.60;99.90;;;;;;5081970;28;20063;-85
2022/06/30 04:17:40;;;;;;;6.60;4.35;;;17.60;99.90;;;;;;5063759;28;20160;-85
2022/06/30 04:20:15;;;;;;;8.77;4.60;;;17.50;99.90;;;;;;5082857;28;20101;-85
2022/06/30 04:22:48;;;;;;;6.75;5.00;;;17.60;99.90;;;;;;5070965;28;20556;-85
2022/06/30 04:25:15;;;;;;;8.50;4.43;;;17.60;99.90;;;;;;5059032;28;20709;-85
2022/06/30 04:27:46;;;;;;;7.82;5.05;;;17.60;99.90;;;;;;5047497;28;20048;-86
2022/06/30 04:30:13;;;;;;;8.65;5.10;;;17.60;99.90;;;;;;5079151;28;20784;-85
2022/06/30 04:32:38;;;;;;;8.40;4.90;;;17.60;99.90;;;;;;5046178;28;20063;-85
2022/06/30 04:35:09;;;;;;;6.47;4.68;;;17.70;99.90;;;;;;5045513;28;20049;-84
2022/06/30 04:37:36;;;;;;;6.90;4.65;;;17.70;99.90;;;;;;5057891;28;20078;-85
2022/06/30 04:42:46;;;;;;;6.60;4.82;;;17.70;99.90;;;;;;5065521;28;20052;-85
2022/06/30 04:45:12;;;;;;;8.05;5.53;;;17.70;99.90;;;;;;5067060;28;20094;-85
2022/06/30 04:47:38;;;;;;;6.03;4.22;;;17.70;99.90;;;;;;5047336;28;20058;-85
2022/06/30 04:50:04;;;;;;;6.72;4.82;;;17.70;99.90;;;;;;5047919;28;20063;-85
2022/06/30 04:52:30;;;;;;;9.13;4.68;;;17.80;99.90;;;;;;5050722;28;20066;-85
2022/06/30 04:54:56;;;;;;;6.22;4.25;;;17.80;99.90;;;;;;5045785;28;20055;-86
2022/06/30 04:57:21;;;;;;;10.60;5.20;;;17.80;99.90;;;;;;5063666;28;20048;-85
2022/06/30 04:59:47;;;;;;;6.88;4.40;;;17.80;99.90;;;;;;5048678;28;20048;-85
2022/06/30 05:02:13;;;;;;;10.07;5.40;;;17.90;99.90;;;;;;5040724;28;20132;-86
2022/06/30 05:04:38;;;;;;;5.95;4.55;;;17.80;99.90;;;;;;5059802;28;20036;-84
2022/06/30 05:07:04;;;;;;;7.95;5.68;;;18.00;99.90;;;;;;5068427;28;20186;-85
2022/06/30 05:09:30;;;;;;;7.38;5.15;;;17.90;99.90;;;;;;5038409;28;20044;-85
2022/06/30 05:11:56;;;;;;;6.53;4.95;;;17.90;99.90;;;;;;5041930;28;20079;-85
2022/06/30 05:14:21;;;;;;;6.22;4.82;;;17.90;99.90;;;;;;5047769;28;20045;-85
2022/06/30 05:16:47;;;;;;;7.47;4.68;;;17.90;99.90;;;;;;5056757;28;20048;-85
2022/06/30 05:19:12;;;;;;;7.82;5.40;;;17.90;99.90;;;;;;5071588;28;20147;-86
2022/06/30 05:21:38;;;;;;;6.80;4.70;;;17.90;99.90;;;;;;5053031;28;20072;-85
2022/06/30 05:26:48;;;;;;;8.25;5.47;;;18.00;99.90;;;;;;5057507;28;20587;-87
2022/06/30 05:29:13;;;;;;;8.27;5.80;;;18.10;99.90;;;;;;5049967;28;20064;-87
2022/06/30 05:31:40;;;;;;;7.20;5.05;;;18.00;99.90;;;;;;5045931;28;20048;-83
2022/06/30 05:34:08;;;;;;;7.72;5.25;;;18.00;99.90;;;;;;5056363;28;20070;-85
2022/06/30 05:36:33;;;;;;;7.30;4.93;;;18.10;99.90;;;;;;5061712;28;20726;-87
2022/06/30 05:38:59;;;;;;;7.63;5.00;;;18.10;99.90;;;;;;5040115;28;20048;-88
2022/06/30 05:41:24;;;;;;;9.38;5.75;;;18.10;99.90;;;;;;5061960;28;20041;-87
2022/06/30 05:43:52;;;;;;;7.63;4.95;;;18.40;99.90;;;;;;5059422;28;20173;-88
2022/06/30 05:46:17;;;;;;;7.55;5.63;;;18.30;99.90;;;;;;5059514;28;20036;-87
2022/06/30 05:48:43;;;;;;;8.90;5.47;;;18.50;99.90;;;;;;5051461;28;20061;-86
2022/06/30 05:51:08;;;;;;;11.07;5.50;;;18.20;99.90;;;;;;5040523;28;20819;-86
2022/06/30 05:53:34;;;;;;;8.20;5.20;;;18.30;99.90;;;;;;5062428;28;20043;-86
2022/06/30 05:55:59;;;;;;;8.80;5.57;;;18.40;99.90;;;;;;5054461;28;20049;-88
2022/06/30 05:58:25;;;;;;;7.50;6.13;;;18.70;99.90;;;;;;5024142;28;20045;-87
2022/06/30 06:00:51;;;;;;;7.50;6.20;;;18.50;99.90;;;;;;5067304;28;20055;-89
2022/06/30 06:03:17;;;;;;;10.55;5.95;;;18.50;99.90;;;;;;5049756;28;20047;-85
2022/06/30 06:05:43;;;;;;;8.23;5.65;;;18.50;99.90;;;;;;5036561;28;20123;-93
2022/06/30 06:08:10;;;;;;;8.27;5.30;;;18.60;99.90;;;;;;5055241;28;20059;-89
2022/06/30 06:10:36;;;;;;;7.35;5.63;;;18.60;99.90;;;;;;5064226;28;20056;-86
2022/06/30 06:13:03;;;;;;;7.75;5.28;;;18.80;99.90;;;;;;5058809;28;20032;-85
2022/06/30 06:15:29;;;;;;;7.68;5.28;;;18.70;99.90;;;;;;5049765;28;20409;-85
2022/06/30 06:17:54;;;;;;;7.72;5.00;;;18.80;99.90;;;;;;5057220;28;20467;-89
2022/06/30 06:20:23;;;;;;;9.38;5.32;;;18.90;99.90;;;;;;5059348;28;20044;-85
2022/06/30 06:22:49;;;;;;;13.70;5.43;;;18.80;99.90;;;;;;5039053;28;20048;-82
2022/06/30 06:25:15;;;;;;;7.38;4.95;;;18.90;99.90;;;;;;5046381;28;20132;-84
2022/06/30 06:27:42;;;;;;;7.72;5.60;;;19.00;99.90;;;;;;5039374;28;20076;-84
2022/06/30 06:30:10;;;;;;;9.02;5.30;;;19.00;99.90;;;;;;5060933;28;20048;-84
2022/06/30 06:32:36;;;;;;;7.15;5.05;;;19.10;99.90;;;;;;5067960;28;20052;-83
2022/06/30 06:35:03;;;;;;;7.88;5.32;;;19.10;99.90;;;;;;5054988;28;20135;-82
2022/06/30 06:37:28;;;;;;;9.95;5.40;;;19.20;99.90;;;;;;5057985;28;20056;-85
2022/06/30 06:39:54;;;;;;;6.45;4.80;;;19.30;99.90;;;;;;5034847;28;20080;-84
2022/06/30 06:42:20;;;;;;;6.80;4.80;;;19.40;99.90;;;;;;5032455;28;20056;-80
2022/06/30 06:44:47;;;;;;;7.72;5.03;;;19.50;99.90;;;;;;5035215;28;20044;-80
2022/06/30 06:47:14;;;;;;;7.60;4.65;;;19.60;99.90;;;;;;5037036;28;20052;-82
2022/06/30 06:49:39;;;;;;;8.93;5.25;;;19.70;99.90;;;;;;5055792;28;20498;-81
2022/06/30 06:52:06;;;;;;;7.60;5.07;;;19.80;99.90;;;;;;5036727;28;20048;-82
2022/06/30 06:54:32;;;;;;;5.82;4.95;;;19.80;99.90;;;;;;5057035;28;20049;-81
2022/06/30 06:56:57;;;;;;;6.43;5.40;;;19.90;99.90;;;;;;5043599;28;20080;-81
2022/06/30 06:59:23;;;;;;;11.13;5.18;;;19.90;99.90;;;;;;5025876;28;20490;-81
2022/06/30 07:01:48;;;;;;;7.60;5.65;;;20.00;99.90;;;;;;5051707;28;20047;-82
2022/06/30 07:04:14;;;;;;;7.93;4.88;;;20.10;99.90;;;;;;5039528;28;20068;-90
2022/06/30 07:06:40;;;;;;;8.13;5.00;;;20.30;99.90;;;;;;5035703;28;20677;-86
2022/06/30 07:09:05;;;;;;;8.63;5.40;;;20.40;99.90;;;;;;5052729;28;20068;-87
2022/06/30 07:11:31;;;;;;;6.82;5.07;;;20.60;99.90;;;;;;5030677;28;20056;-87
2022/06/30 07:13:56;;;;;;;10.68;6.05;;;20.80;99.90;;;;;;5043278;28;20056;-87
2022/06/30 07:16:22;;;;;;;7.95;5.38;;;21.00;99.90;;;;;;5059127;28;20040;-90
2022/06/30 07:18:48;;;;;;;10.48;5.78;;;21.30;99.90;;;;;;5057308;28;20521;-88
2022/06/30 07:21:14;;;;;;;7.00;5.43;;;21.70;99.90;;;;;;5046085;28;20693;-89
2022/06/30 07:23:40;;;;;;;8.15;5.80;;;22.00;99.90;;;;;;5035056;28;20121;-84
2022/06/30 07:26:05;;;;;;;12.57;5.22;;;22.30;99.90;;;;;;5033055;28;20057;-83
2022/06/30 07:28:31;;;;;;;7.95;4.78;;;22.60;99.90;;;;;;5057874;28;20646;-83
2022/06/30 07:30:57;;;;;;;13.77;6.00;;;22.90;99.90;;;;;;5044903;28;20183;-83
2022/06/30 07:33:22;;;;;;;10.57;4.70;;;23.10;99.90;;;;;;5043339;28;20066;-84
2022/06/30 07:35:48;;;;;;;8.18;5.57;;;23.40;99.90;;;;;;5049313;28;20052;-84
2022/06/30 07:38:13;;;;;;;9.43;5.10;;;23.50;99.90;;;;;;5046771;28;20673;-83
2022/06/30 07:40:39;;;;;;;9.27;4.85;;;23.70;99.90;;;;;;5028552;28;20045;-83
2022/06/30 07:43:05;;;;;;;6.60;5.00;;;23.90;99.90;;;;;;5069631;28;20586;-84
2022/06/30 07:45:31;;;;;;;10.85;5.38;;;24.10;99.90;;;;;;5045394;28;20574;-84
2022/06/30 07:47:57;;;;;;;8.55;5.15;;;24.20;99.90;;;;;;5037277;28;20056;-84
2022/06/30 07:50:23;;;;;;;9.63;5.30;;;24.40;99.90;;;;;;5058192;28;20045;-84
2022/06/30 07:52:49;;;;;;;10.15;6.28;;;24.40;99.90;;;;;;5066041;28;20091;-85
2022/06/30 07:55:15;;;;;;;9.20;5.32;;;24.50;99.90;;;;;;5065878;28;20122;-84
2022/06/30 07:57:42;;;;;;;10.38;6.20;;;24.50;99.90;;;;;;5067396;28;20412;-84
2022/06/30 08:00:10;;;;;;;6.30;5.50;;;24.70;99.90;;;;;;5039174;28;20781;-85
2022/06/30 08:02:36;;;;;;;7.80;5.55;;;24.70;99.90;;;;;;5036389;28;20067;-85
2022/06/30 08:05:02;;;;;;;10.15;5.45;;;24.80;99.90;;;;;;5061453;28;20772;-84
2022/06/30 08:07:27;;;;;;;7.78;4.88;;;24.80;99.90;;;;;;5041574;28;20135;-84
2022/06/30 08:09:53;;;;;;;6.78;4.65;;;24.80;99.90;;;;;;5059739;28;20040;-88
2022/06/30 08:12:18;;;;;;;8.70;5.10;;;24.90;99.90;;;;;;5048567;28;20047;-86
2022/06/30 08:14:44;;;;;;;7.15;5.22;;;25.00;99.90;;;;;;5062985;28;20554;-83
2022/06/30 08:17:10;;;;;;;6.45;4.72;;;24.90;99.90;;;;;;5041060;28;20047;-85
2022/06/30 08:19:35;;;;;;;8.23;6.03;;;25.10;99.90;;;;;;5064061;28;20051;-85
2022/06/30 08:22:01;;;;;;;7.93;5.72;;;25.20;99.90;;;;;;5046645;28;20491;-85
2022/06/30 08:24:27;;;;;;;7.25;5.60;;;25.20;99.90;;;;;;5032046;28;20122;-84
2022/06/30 08:26:52;;;;;;;7.07;5.70;;;25.20;99.90;;;;;;5046303;28;20094;-84
2022/06/30 08:29:18;;;;;;;11.52;6.05;;;25.30;99.90;;;;;;5065030;28;20143;-84
2022/06/30 08:31:44;;;;;;;9.32;5.82;;;25.30;99.90;;;;;;5057136;28;20051;-85
2022/06/30 08:34:10;;;;;;;8.50;5.45;;;25.30;99.90;;;;;;5037750;28;20041;-84
2022/06/30 08:36:35;;;;;;;9.57;6.00;;;25.40;99.90;;;;;;5057897;28;20045;-83
2022/06/30 08:39:02;;;;;;;10.20;5.75;;;25.40;99.90;;;;;;5055641;28;20048;-83
2022/06/30 08:44:18;;;;;;;8.57;6.22;;;25.50;99.90;;;;;;5047722;28;20832;-83
2022/06/30 08:46:44;;;;;;;11.45;6.15;;;25.50;99.90;;;;;;5068538;28;20040;-85
2022/06/30 08:49:10;;;;;;;6.75;5.55;;;25.60;99.90;;;;;;5048812;28;20044;-85
2022/06/30 08:51:38;;;;;;;8.88;5.93;;;25.60;99.90;;;;;;5040139;28;20521;-84
2022/06/30 08:54:06;;;;;;;7.13;5.80;;;25.70;99.90;;;;;;5050658;28;20055;-85
2022/06/30 08:56:34;;;;;;;9.60;6.75;;;25.60;99.90;;;;;;5075179;28;20050;-84
2022/06/30 08:59:02;;;;;;;11.25;6.20;;;25.80;99.90;;;;;;5059688;28;20055;-85
2022/06/30 09:01:28;;;;;;;9.45;6.72;;;25.80;99.90;;;;;;5044151;28;20040;-84
2022/06/30 09:03:55;;;;;;;13.52;6.75;;;25.80;99.90;;;;;;5075294;28;20051;-86
2022/06/30 09:06:21;;;;;;;9.48;6.82;;;25.90;99.90;;;;;;5056138;28;20044;-85
2022/06/30 09:08:46;;;;;;;7.43;6.40;;;25.90;99.90;;;;;;5054917;28;20055;-85
2022/06/30 09:11:12;;;;;;;9.52;6.82;;;26.00;99.90;;;;;;5074317;28;20044;-85
2022/06/30 09:13:43;;;;;;;8.48;6.80;;;26.10;99.90;;;;;;5057847;28;20032;-85
2022/06/30 09:16:09;;;;;;;9.07;7.20;;;26.20;99.90;;;;;;5070600;28;20048;-85
2022/06/30 09:18:35;;;;;;;8.13;6.00;;;26.30;99.90;;;;;;5064253;28;20139;-85
2022/06/30 09:21:19;;;;;;;8.27;5.75;;;26.30;99.90;;;;;;5074475;28;20459;-84
2022/06/30 09:23:47;;;;;;;7.45;6.18;;;26.40;99.90;;;;;;5036068;28;20041;-85
2022/06/30 09:26:19;;;;;;;11.80;7.38;;;26.50;99.90;;;;;;5046609;28;20718;-85
2022/06/30 09:28:54;;;;;;;7.53;6.25;;;26.60;99.90;;;;;;5041394;28;20041;-84
2022/06/30 09:31:34;;;;;;;7.47;6.13;;;26.70;99.90;;;;;;5057356;28;20057;-83
2022/06/30 09:34:16;;;;;;;7.25;6.20;;;26.80;99.90;;;;;;5069064;28;20158;-84
2022/06/30 09:36:42;;;;;;;8.05;6.40;;;26.90;99.90;;;;;;5047379;28;20045;-85
2022/06/30 09:39:10;;;;;;;8.70;7.22;;;27.00;99.90;;;;;;5042586;28;20057;-86
2022/06/30 09:41:39;;;;;;;7.38;6.45;;;27.00;99.90;;;;;;5062475;28;20060;-85
2022/06/30 09:44:24;;;;;;;9.68;7.32;;;27.10;99.90;;;;;;5076053;28;20044;-85
2022/06/30 09:47:02;;;;;;;8.68;7.25;;;27.20;99.90;;;;;;5054055;28;20427;-85
2022/06/30 09:49:33;;;;;;;9.93;7.25;;;27.20;99.90;;;;;;5042731;28;20049;-85
2022/06/30 09:52:15;;;;;;;8.60;6.43;;;27.20;99.90;;;;;;5056090;28;20080;-86
2022/06/30 09:54:56;;;;;;;9.05;6.80;;;27.30;99.90;;;;;;5035068;28;20131;-87
2022/06/30 09:57:24;;;;;;;9.85;7.50;;;27.30;99.90;;;;;;5070213;28;20090;-84
2022/06/30 10:00:06;;;;;;;10.43;6.82;;;27.30;99.90;;;;;;5060825;28;20079;-86
2022/06/30 10:02:39;;;;;;;9.98;6.95;;;27.40;99.90;;;;;;5035190;28;20059;-86
2022/06/30 10:05:06;;;;;;;11.07;6.50;;;27.50;99.90;;;;;;5063097;28;20044;-85
2022/06/30 10:07:35;;;;;;;10.90;7.75;;;27.60;99.90;;;;;;5049573;28;20893;-86
2022/06/30 10:10:06;;;;;;;7.63;6.28;;;27.60;99.90;;;;;;5060465;28;20146;-86
2022/06/30 10:12:33;;;;;;;9.02;6.68;;;27.70;99.90;;;;;;5053045;28;20472;-84
2022/06/30 10:14:59;;;;;;;9.50;6.70;;;27.80;99.90;;;;;;5056453;28;20062;-84
2022/06/30 10:17:27;;;;;;;8.60;7.53;;;27.90;99.90;;;;;;5055605;28;20041;-82
2022/06/30 10:19:54;;;;;;;9.60;6.82;;;28.00;99.90;;;;;;5062436;28;20098;-81
2022/06/30 10:22:22;;;;;;;10.38;7.32;;;28.10;99.90;;;;;;5056364;28;20790;-90
2022/06/30 10:24:51;;;;;;;10.63;7.13;;;28.10;99.90;;;;;;5028542;28;20114;-89
2022/06/30 10:27:22;;;;;;;9.07;7.53;;;28.30;99.90;;;;;;5061090;28;20048;-89
2022/06/30 10:30:00;;;;;;;8.45;6.53;;;28.40;99.90;;;;;;5031313;28;20155;-90
2022/06/30 10:32:35;;;;;;;11.25;7.57;;;28.50;99.90;;;;;;5068515;28;20491;-91
2022/06/30 10:35:27;;;;;;;13.75;8.65;;;28.50;99.60;;;;;;5051024;28;20052;-90
2022/06/30 10:38:20;;;;;;;8.68;7.78;;;28.60;99.20;;;;;;5036724;28;20072;-82
2022/06/30 10:41:15;;;;;;;9.65;7.20;;;28.80;99.50;;;;;;5036310;28;20044;-84
2022/06/30 10:44:04;;;;;;;7.60;6.80;;;28.90;99.10;;;;;;5043173;28;20083;-84
2022/06/30 10:46:36;;;;;;;9.05;8.13;;;28.90;99.50;;;;;;5012387;28;20049;-83
2022/06/30 10:49:09;;;;;;;11.13;7.35;;;28.90;99.00;;;;;;5050990;28;20040;-84
2022/06/30 10:51:35;;;;;;;8.57;7.47;;;29.00;99.00;;;;;;5060576;28;20529;-84
2022/06/30 10:54:01;;;;;;;9.57;7.97;;;29.00;98.90;;;;;;5059121;28;20052;-84
2022/06/30 10:56:48;;;;;;;10.20;7.47;;;28.90;98.00;;;;;;5072139;28;20044;-84
2022/06/30 10:59:15;;;;;;;8.27;7.40;;;28.70;98.60;;;;;;5039812;28;20579;-84
2022/06/30 11:02:15;;;;;;;8.43;7.60;;;28.60;99.00;;;;;;5038318;28;20045;-84
2022/06/30 11:04:47;;;;;;;9.00;7.82;;;28.50;99.20;;;;;;5063499;28;20502;-83
2022/06/30 11:07:21;;;;;;;11.82;6.95;;;28.50;99.30;;;;;;5041300;28;20127;-83
2022/06/30 11:09:47;;;;;;;9.88;7.63;;;28.40;99.20;;;;;;5051256;28;20505;-84
2022/06/30 11:12:48;;;;;;;9.93;8.80;;;28.40;99.10;;;;;;5032529;28;20059;-84
2022/06/30 11:15:14;;;;;;;8.48;7.68;;;28.40;98.50;;;;;;5039962;28;20052;-83
2022/06/30 11:17:40;;;;;;;10.18;8.10;;;28.30;99.20;;;;;;5056095;28;20040;-84
2022/06/30 11:20:07;;;;;;;10.38;7.80;;;28.10;99.60;;;;;;5042388;28;20740;-84
2022/06/30 11:22:34;;;;;;;10.43;8.75;;;28.00;99.50;;;;;;5060595;28;20049;-84
2022/06/30 11:25:09;;;;;;;10.63;8.45;;;27.60;99.70;;;;;;5056714;28;20040;-85
2022/06/30 11:27:37;;;;;;;12.73;8.38;;;27.50;99.90;;;;;;5043554;28;20048;-84
2022/06/30 11:30:04;;;;;;;10.02;8.82;;;27.30;99.90;;;;;;5046481;28;20064;-83
2022/06/30 11:32:30;;;;;;;9.38;7.82;;;27.10;99.90;;;;;;5076317;28;20904;-87
2022/06/30 11:34:59;;;;;;;9.07;8.18;;;26.90;99.90;;;;;;5045751;28;20048;-82
2022/06/30 11:37:30;;;;;;;8.48;7.45;;;26.90;99.90;;;;;;5052051;28;20105;-82
2022/06/30 11:40:03;;;;;;;9.43;7.82;;;27.00;99.90;;;;;;5056269;28;20044;-83
2022/06/30 11:42:29;;;;;;;9.80;7.73;;;27.20;99.90;;;;;;5050006;28;20052;-90
2022/06/30 11:44:55;;;;;;;8.80;6.40;;;27.40;99.90;;;;;;5050210;28;20126;-86
2022/06/30 11:47:46;;;;;;;;;;;;;;;;;;;;;
2022/06/30 11:52:57;;;;;;;8.65;5.57;;;28.10;99.20;;;;;;4998532;28;20491;-85
2022/06/30 11:55:28;;;;;;;7.93;5.18;;;28.10;98.40;;;;;;4999993;28;20160;-86
2022/06/30 11:57:54;;;;;;;8.07;5.45;;;28.20;98.70;;;;;;4982390;28;20512;-85
2022/06/30 12:04:16;;;;;;;7.75;5.60;;;28.50;98.60;;;;;;4954324;28;20050;-86
2022/06/30 12:06:45;;;;;;;11.63;4.53;;;28.70;97.70;;;;;;4932200;28;20854;-85
2022/06/30 12:09:16;;;;;;;9.05;4.85;;;29.00;97.40;;;;;;4983325;28;20042;-85
2022/06/30 12:15:54;;;;;;;8.63;4.78;;;29.40;96.00;;;;;;5000975;28;20061;-86
2022/06/30 12:18:51;;;;;;;6.45;4.65;;;29.20;94.70;;;;;;5020586;28;20051;-87
2022/06/30 12:21:26;;;;;;;6.65;4.40;;;29.20;95.20;;;;;;4982304;28;20049;-86
2022/06/30 12:27:00;;;;;;;8.82;5.57;;;29.40;95.70;;;;;;4997972;28;20061;-90
2022/06/30 12:30:24;;;;;;;10.45;5.90;;;29.50;95.50;;;;;;4982723;28;20151;-86
2022/06/30 12:33:45;;;;;;;8.13;5.68;;;29.60;94.90;;;;;;4999087;28;20046;-85
2022/06/30 12:36:39;;;;;;;8.80;5.53;;;29.60;94.10;;;;;;4996651;28;20090;-87
2022/06/30 13:02:05;;;;;;;12.70;6.07;;;29.10;94.80;;;;;;4947355;28;20086;-88
2022/06/30 13:12:16;;;;;;;;;;;;;;;;;;;;;
2022/06/30 13:15:00;;;;;;;7.53;4.80;;;29.00;94.10;;;;;;4856568;29;20069;-87
2022/06/30 13:17:26;;;;;;;7.68;4.70;;;29.00;94.10;;;;;;4847208;29;20175;-86
2022/06/30 13:20:48;;;;;;;11.57;4.15;;;28.90;93.20;;;;;;4850503;29;20831;-93
2022/06/30 13:23:25;;;;;;;8.75;3.75;;;28.80;93.70;;;;;;4857048;29;20132;-88
2022/06/30 13:25:51;;;;;;;6.53;4.43;;;28.60;93.50;;;;;;4916741;28;20055;-85
2022/06/30 13:28:16;;;;;;;6.88;5.20;;;28.70;93.70;;;;;;4936512;28;20054;-85
2022/06/30 13:30:48;;;;;;;11.20;7.93;;;28.90;94.50;;;;;;4938824;29;20781;-88
2022/06/30 13:33:17;;;;;;;9.07;7.28;;;29.10;95.00;;;;;;4938613;28;20062;-88
2022/06/30 13:35:43;;;;;;;8.27;6.28;;;29.20;95.50;;;;;;4957195;28;20796;-87
2022/06/30 13:38:08;;;;;;;9.40;7.20;;;29.20;96.00;;;;;;4942199;28;20586;-87
2022/06/30 13:40:37;;;;;;;10.48;8.02;;;29.30;96.50;;;;;;4942586;28;20819;-86
2022/06/30 13:43:04;;;;;;;11.00;9.80;;;29.30;96.50;;;;;;4941959;28;20212;-87
2022/06/30 13:45:33;;;;;;;16.15;12.80;;;29.30;97.00;;;;;;4940313;28;20058;-86
2022/06/30 13:47:58;;;;;;;12.45;9.82;;;29.20;97.10;;;;;;4933888;28;20062;-87
2022/06/30 13:50:24;;;;;;;17.50;11.15;;;29.00;97.40;;;;;;4930975;29;20043;-88
2022/06/30 13:52:50;;;;;;;14.65;11.32;;;28.90;97.90;;;;;;4940342;28;20571;-88